Toowoomba, Australia
Current Conditions -  °F | °C
As of 1:00 AM on Friday 31 Oct 2014 (Local Time) from YBOK Reporting Station
Clear Clear  
Wind Chill: 68°   Ceiling: Unl
Heat Index: 68°   Visibility: 6mi
Dew Point: 63°   Wind: 9mph
Humidity: 83%   Direction: 50°NE
Pressure: 29.97"   Gusts: NA
Location:  27.56°S, 151.96°E
Report Text: YBOK 301500Z AUTO 05008KT 9999 // NCD 20/17 Q1015
Loading
Personal Weather Stations






























Interactive Weather Map
Tropical Storm Tracking
New forecast layout! Learn more

10-Day Weather Forecast

Advertisements
Track Severe Weather on mobile